sensor_id;sensor_type;location;lat;lon;timestamp;temperature;humidity
3994;DHT22;2011;48.238;13.948;2024-03-25T00:01:48;4.60;99.90
3994;DHT22;2011;48.238;13.948;2024-03-25T00:04:15;4.60;99.90
3994;DHT22;2011;48.238;13.948;2024-03-25T00:06:41;4.70;99.90
3994;DHT22;2011;48.238;13.948;2024-03-25T00:09:08;4.60;99.90
3994;DHT22;2011;48.238;13.948;2024-03-25T00:11:41;4.70;99.90
3994;DHT22;2011;48.238;13.948;2024-03-25T00:14:09;4.70;99.90
3994;DHT22;2011;48.238;13.948;2024-03-25T00:16:35;4.70;99.90
3994;DHT22;2011;48.238;13.948;2024-03-25T00:19:02;4.70;99.90
3994;DHT22;2011;48.238;13.948;2024-03-25T00:21:28;4.70;99.90
3994;DHT22;2011;48.238;13.948;2024-03-25T00:23:55;4.70;99.90
3994;DHT22;2011;48.238;13.948;2024-03-25T00:26:22;4.70;99.90
3994;DHT22;2011;48.238;13.948;2024-03-25T00:28:51;4.70;99.90
3994;DHT22;2011;48.238;13.948;2024-03-25T00:31:16;4.70;99.90
3994;DHT22;2011;48.238;13.948;2024-03-25T00:33:43;4.60;99.90
3994;DHT22;2011;48.238;13.948;2024-03-25T00:36:09;4.60;99.90
3994;DHT22;2011;48.238;13.948;2024-03-25T00:38:37;4.70;99.90
3994;DHT22;2011;48.238;13.948;2024-03-25T00:41:03;4.60;99.90
3994;DHT22;2011;48.238;13.948;2024-03-25T00:43:30;4.50;99.90
3994;DHT22;2011;48.238;13.948;2024-03-25T00:45:57;4.50;99.90
3994;DHT22;2011;48.238;13.948;2024-03-25T00:48:24;4.40;99.90
3994;DHT22;2011;48.238;13.948;2024-03-25T00:50:50;4.40;99.90
3994;DHT22;2011;48.238;13.948;2024-03-25T00:53:17;4.40;99.90
3994;DHT22;2011;48.238;13.948;2024-03-25T00:55:43;4.40;99.90
3994;DHT22;2011;48.238;13.948;2024-03-25T00:58:10;4.40;99.90
3994;DHT22;2011;48.238;13.948;2024-03-25T01:00:36;4.40;99.90
3994;DHT22;2011;48.238;13.948;2024-03-25T01:03:05;4.40;99.90
3994;DHT22;2011;48.238;13.948;2024-03-25T01:05:31;4.40;99.90
3994;DHT22;2011;48.238;13.948;2024-03-25T01:07:58;4.40;99.90
3994;DHT22;2011;48.238;13.948;2024-03-25T01:10:24;4.30;99.90
3994;DHT22;2011;48.238;13.948;2024-03-25T01:12:52;4.40;99.90
3994;DHT22;2011;48.238;13.948;2024-03-25T01:15:18;4.30;99.90
3994;DHT22;2011;48.238;13.948;2024-03-25T01:17:45;4.30;99.90
3994;DHT22;2011;48.238;13.948;2024-03-25T01:20:12;4.30;99.90
3994;DHT22;2011;48.238;13.948;2024-03-25T01:22:39;4.30;99.90
3994;DHT22;2011;48.238;13.948;2024-03-25T01:25:06;4.30;99.90
3994;DHT22;2011;48.238;13.948;2024-03-25T01:27:33;4.30;99.90
3994;DHT22;2011;48.238;13.948;2024-03-25T01:29:59;4.40;99.90
3994;DHT22;2011;48.238;13.948;2024-03-25T01:32:29;4.30;99.90
3994;DHT22;2011;48.238;13.948;2024-03-25T01:34:56;4.30;99.90
3994;DHT22;2011;48.238;13.948;2024-03-25T01:37:24;4.30;99.90
3994;DHT22;2011;48.238;13.948;2024-03-25T01:39:50;4.30;99.90
3994;DHT22;2011;48.238;13.948;2024-03-25T01:42:17;4.30;99.90
3994;DHT22;2011;48.238;13.948;2024-03-25T01:44:43;4.40;99.90
3994;DHT22;2011;48.238;13.948;2024-03-25T01:47:12;4.40;99.90
3994;DHT22;2011;48.238;13.948;2024-03-25T01:49:39;4.40;99.90
3994;DHT22;2011;48.238;13.948;2024-03-25T01:52:06;4.40;99.90
3994;DHT22;2011;48.238;13.948;2024-03-25T01:54:34;4.40;99.90
3994;DHT22;2011;48.238;13.948;2024-03-25T01:57:01;4.50;99.90
3994;DHT22;2011;48.238;13.948;2024-03-25T01:59:28;4.50;99.90
3994;DHT22;2011;48.238;13.948;2024-03-25T02:01:55;4.50;99.90
3994;DHT22;2011;48.238;13.948;2024-03-25T02:04:22;4.50;99.90
3994;DHT22;2011;48.238;13.948;2024-03-25T02:06:49;4.50;99.90
3994;DHT22;2011;48.238;13.948;2024-03-25T02:09:15;4.60;99.90
3994;DHT22;2011;48.238;13.948;2024-03-25T02:11:44;4.60;99.90
3994;DHT22;2011;48.238;13.948;2024-03-25T02:14:11;4.70;99.90
3994;DHT22;2011;48.238;13.948;2024-03-25T02:16:38;4.70;99.90
3994;DHT22;2011;48.238;13.948;2024-03-25T02:19:04;4.70;99.90
3994;DHT22;2011;48.238;13.948;2024-03-25T02:21:31;4.70;99.90
3994;DHT22;2011;48.238;13.948;2024-03-25T02:23:59;4.70;99.90
3994;DHT22;2011;48.238;13.948;2024-03-25T02:26:28;4.70;99.90
3994;DHT22;2011;48.238;13.948;2024-03-25T02:28:54;4.70;99.90
3994;DHT22;2011;48.238;13.948;2024-03-25T02:31:21;4.70;99.90
3994;DHT22;2011;48.238;13.948;2024-03-25T02:33:47;4.90;99.90
3994;DHT22;2011;48.238;13.948;2024-03-25T02:36:14;4.80;99.90
3994;DHT22;2011;48.238;13.948;2024-03-25T02:38:41;4.80;99.90
3994;DHT22;2011;48.238;13.948;2024-03-25T02:41:08;4.80;99.90
3994;DHT22;2011;48.238;13.948;2024-03-25T02:43:35;4.80;99.90
3994;DHT22;2011;48.238;13.948;2024-03-25T02:46:03;4.80;99.90
3994;DHT22;2011;48.238;13.948;2024-03-25T02:48:29;4.80;99.90
3994;DHT22;2011;48.238;13.948;2024-03-25T02:50:56;4.80;99.90
3994;DHT22;2011;48.238;13.948;2024-03-25T02:53:22;4.80;99.90
3994;DHT22;2011;48.238;13.948;2024-03-25T02:55:49;4.80;99.90
3994;DHT22;2011;48.238;13.948;2024-03-25T02:58:15;4.80;99.90
3994;DHT22;2011;48.238;13.948;2024-03-25T03:00:43;4.80;99.90
3994;DHT22;2011;48.238;13.948;2024-03-25T03:03:09;4.80;99.90
3994;DHT22;2011;48.238;13.948;2024-03-25T03:05:36;4.80;99.90
3994;DHT22;2011;48.238;13.948;2024-03-25T03:08:02;4.80;99.90
3994;DHT22;2011;48.238;13.948;2024-03-25T03:10:29;4.90;99.90
3994;DHT22;2011;48.238;13.948;2024-03-25T03:12:55;4.90;99.90
3994;DHT22;2011;48.238;13.948;2024-03-25T03:15:22;4.90;99.90
3994;DHT22;2011;48.238;13.948;2024-03-25T03:17:50;4.90;99.90
3994;DHT22;2011;48.238;13.948;2024-03-25T03:20:17;4.90;99.90
3994;DHT22;2011;48.238;13.948;2024-03-25T03:22:43;5.00;99.90
3994;DHT22;2011;48.238;13.948;2024-03-25T03:25:10;5.00;99.90
3994;DHT22;2011;48.238;13.948;2024-03-25T03:27:36;5.00;99.90
3994;DHT22;2011;48.238;13.948;2024-03-25T03:30:03;4.90;99.90
3994;DHT22;2011;48.238;13.948;2024-03-25T03:32:29;4.90;99.90
3994;DHT22;2011;48.238;13.948;2024-03-25T03:34:58;4.90;99.90
3994;DHT22;2011;48.238;13.948;2024-03-25T03:37:24;4.90;99.90
3994;DHT22;2011;48.238;13.948;2024-03-25T03:39:51;4.90;99.90
3994;DHT22;2011;48.238;13.948;2024-03-25T03:42:17;4.90;99.90
3994;DHT22;2011;48.238;13.948;2024-03-25T03:44:44;5.00;99.90
3994;DHT22;2011;48.238;13.948;2024-03-25T03:47:10;5.00;99.90
3994;DHT22;2011;48.238;13.948;2024-03-25T03:49:37;5.00;99.90
3994;DHT22;2011;48.238;13.948;2024-03-25T03:52:05;5.10;99.90
3994;DHT22;2011;48.238;13.948;2024-03-25T03:54:32;5.00;99.90
3994;DHT22;2011;48.238;13.948;2024-03-25T03:56:58;5.00;99.90
3994;DHT22;2011;48.238;13.948;2024-03-25T03:59:26;5.10;99.90
3994;DHT22;2011;48.238;13.948;2024-03-25T04:01:52;5.10;99.90
3994;DHT22;2011;48.238;13.948;2024-03-25T04:04:19;5.00;99.90
3994;DHT22;2011;48.238;13.948;2024-03-25T04:06:45;5.10;99.90
3994;DHT22;2011;48.238;13.948;2024-03-25T04:09:14;5.10;99.90
3994;DHT22;2011;48.238;13.948;2024-03-25T04:11:40;5.10;99.90
3994;DHT22;2011;48.238;13.948;2024-03-25T04:14:07;5.10;99.90
3994;DHT22;2011;48.238;13.948;2024-03-25T04:16:33;5.20;99.90
3994;DHT22;2011;48.238;13.948;2024-03-25T04:19:00;5.10;99.90
3994;DHT22;2011;48.238;13.948;2024-03-25T04:21:26;5.10;99.90
3994;DHT22;2011;48.238;13.948;2024-03-25T04:23:53;5.20;99.90
3994;DHT22;2011;48.238;13.948;2024-03-25T04:26:21;5.10;99.90
3994;DHT22;2011;48.238;13.948;2024-03-25T04:28:48;5.20;99.90
3994;DHT22;2011;48.238;13.948;2024-03-25T04:31:14;5.10;99.90
3994;DHT22;2011;48.238;13.948;2024-03-25T04:33:41;5.20;99.90
3994;DHT22;2011;48.238;13.948;2024-03-25T04:36:07;5.20;99.90
3994;DHT22;2011;48.238;13.948;2024-03-25T04:38:34;5.20;99.90
3994;DHT22;2011;48.238;13.948;2024-03-25T04:41:00;5.20;99.90
3994;DHT22;2011;48.238;13.948;2024-03-25T04:43:27;5.20;99.90
3994;DHT22;2011;48.238;13.948;2024-03-25T04:45:53;5.20;99.90
3994;DHT22;2011;48.238;13.948;2024-03-25T04:48:19;5.20;99.90
3994;DHT22;2011;48.238;13.948;2024-03-25T04:50:45;5.20;99.90
3994;DHT22;2011;48.238;13.948;2024-03-25T04:53:11;5.20;99.90
3994;DHT22;2011;48.238;13.948;2024-03-25T04:55:37;5.20;99.90
3994;DHT22;2011;48.238;13.948;2024-03-25T04:58:03;5.20;99.90
3994;DHT22;2011;48.238;13.948;2024-03-25T05:00:30;5.20;99.90
3994;DHT22;2011;48.238;13.948;2024-03-25T05:02:56;5.20;99.90
3994;DHT22;2011;48.238;13.948;2024-03-25T05:05:22;5.20;99.90
3994;DHT22;2011;48.238;13.948;2024-03-25T05:07:48;5.20;99.90
3994;DHT22;2011;48.238;13.948;2024-03-25T05:10:14;5.20;99.90
3994;DHT22;2011;48.238;13.948;2024-03-25T05:12:40;5.20;99.90
3994;DHT22;2011;48.238;13.948;2024-03-25T05:15:06;5.20;99.90
3994;DHT22;2011;48.238;13.948;2024-03-25T05:17:33;5.20;99.90
3994;DHT22;2011;48.238;13.948;2024-03-25T05:19:59;5.20;99.90
3994;DHT22;2011;48.238;13.948;2024-03-25T05:22:25;5.20;99.90
3994;DHT22;2011;48.238;13.948;2024-03-25T05:24:51;5.20;99.90
3994;DHT22;2011;48.238;13.948;2024-03-25T05:27:17;5.30;99.90
3994;DHT22;2011;48.238;13.948;2024-03-25T05:29:43;5.20;99.90
3994;DHT22;2011;48.238;13.948;2024-03-25T05:32:09;5.30;99.90
3994;DHT22;2011;48.238;13.948;2024-03-25T05:34:37;5.30;99.90
3994;DHT22;2011;48.238;13.948;2024-03-25T05:37:03;5.30;99.90
3994;DHT22;2011;48.238;13.948;2024-03-25T05:39:29;5.30;99.90
3994;DHT22;2011;48.238;13.948;2024-03-25T05:41:55;5.30;99.90
3994;DHT22;2011;48.238;13.948;2024-03-25T05:44:22;5.30;99.90
3994;DHT22;2011;48.238;13.948;2024-03-25T05:46:47;5.30;99.90
3994;DHT22;2011;48.238;13.948;2024-03-25T05:49:13;5.30;99.90
3994;DHT22;2011;48.238;13.948;2024-03-25T05:51:41;5.40;99.90
3994;DHT22;2011;48.238;13.948;2024-03-25T05:54:07;5.30;99.90
3994;DHT22;2011;48.238;13.948;2024-03-25T05:56:33;5.30;99.90
3994;DHT22;2011;48.238;13.948;2024-03-25T05:59:00;5.30;99.90
3994;DHT22;2011;48.238;13.948;2024-03-25T06:01:26;5.30;99.90
3994;DHT22;2011;48.238;13.948;2024-03-25T06:03:52;5.30;99.90
3994;DHT22;2011;48.238;13.948;2024-03-25T06:06:19;5.30;99.90
3994;DHT22;2011;48.238;13.948;2024-03-25T06:08:46;5.30;99.90
3994;DHT22;2011;48.238;13.948;2024-03-25T06:11:12;5.40;99.90
3994;DHT22;2011;48.238;13.948;2024-03-25T06:13:38;5.40;99.90
3994;DHT22;2011;48.238;13.948;2024-03-25T06:16:04;5.40;99.90
3994;DHT22;2011;48.238;13.948;2024-03-25T06:18:31;5.40;99.90
3994;DHT22;2011;48.238;13.948;2024-03-25T06:20:57;5.40;99.90
3994;DHT22;2011;48.238;13.948;2024-03-25T06:23:24;5.50;99.90
3994;DHT22;2011;48.238;13.948;2024-03-25T06:25:53;5.50;99.90
3994;DHT22;2011;48.238;13.948;2024-03-25T06:28:19;5.50;99.90
3994;DHT22;2011;48.238;13.948;2024-03-25T06:30:46;5.50;99.90
3994;DHT22;2011;48.238;13.948;2024-03-25T06:33:31;5.60;99.90
3994;DHT22;2011;48.238;13.948;2024-03-25T06:36:15;5.60;99.90
3994;DHT22;2011;48.238;13.948;2024-03-25T06:38:41;5.60;99.90
3994;DHT22;2011;48.238;13.948;2024-03-25T06:41:09;5.60;99.90
3994;DHT22;2011;48.238;13.948;2024-03-25T06:43:35;5.60;99.90
3994;DHT22;2011;48.238;13.948;2024-03-25T06:46:01;5.60;99.90
3994;DHT22;2011;48.238;13.948;2024-03-25T06:48:27;5.70;99.90
3994;DHT22;2011;48.238;13.948;2024-03-25T06:50:54;5.70;99.90
3994;DHT22;2011;48.238;13.948;2024-03-25T06:53:20;5.80;99.90
3994;DHT22;2011;48.238;13.948;2024-03-25T06:55:53;5.80;99.90
3994;DHT22;2011;48.238;13.948;2024-03-25T06:58:22;5.80;99.90
3994;DHT22;2011;48.238;13.948;2024-03-25T07:00:48;5.90;99.90
3994;DHT22;2011;48.238;13.948;2024-03-25T07:03:15;6.00;99.90
3994;DHT22;2011;48.238;13.948;2024-03-25T07:05:41;6.00;99.90
3994;DHT22;2011;48.238;13.948;2024-03-25T07:08:09;6.00;99.90
3994;DHT22;2011;48.238;13.948;2024-03-25T07:10:35;6.10;99.90
3994;DHT22;2011;48.238;13.948;2024-03-25T07:13:01;6.00;99.90
3994;DHT22;2011;48.238;13.948;2024-03-25T07:15:29;6.10;99.90
3994;DHT22;2011;48.238;13.948;2024-03-25T07:17:54;6.10;99.90
3994;DHT22;2011;48.238;13.948;2024-03-25T07:20:20;6.10;99.90
3994;DHT22;2011;48.238;13.948;2024-03-25T07:22:46;6.20;99.90
3994;DHT22;2011;48.238;13.948;2024-03-25T07:25:12;6.20;99.90
3994;DHT22;2011;48.238;13.948;2024-03-25T07:27:38;6.20;99.90
3994;DHT22;2011;48.238;13.948;2024-03-25T07:30:06;6.20;99.90
3994;DHT22;2011;48.238;13.948;2024-03-25T07:32:33;6.20;99.90
3994;DHT22;2011;48.238;13.948;2024-03-25T07:34:59;6.20;99.90
3994;DHT22;2011;48.238;13.948;2024-03-25T07:37:25;6.20;99.90
3994;DHT22;2011;48.238;13.948;2024-03-25T07:39:51;6.30;99.90
3994;DHT22;2011;48.238;13.948;2024-03-25T07:42:17;6.30;99.90
3994;DHT22;2011;48.238;13.948;2024-03-25T07:44:43;6.40;99.90
3994;DHT22;2011;48.238;13.948;2024-03-25T07:47:09;6.50;99.90
3994;DHT22;2011;48.238;13.948;2024-03-25T07:49:36;6.50;99.90
3994;DHT22;2011;48.238;13.948;2024-03-25T07:52:03;6.60;99.90
3994;DHT22;2011;48.238;13.948;2024-03-25T07:54:29;6.70;99.90
3994;DHT22;2011;48.238;13.948;2024-03-25T07:56:55;6.80;99.90
3994;DHT22;2011;48.238;13.948;2024-03-25T07:59:21;6.90;99.90
3994;DHT22;2011;48.238;13.948;2024-03-25T08:01:48;6.90;99.90
3994;DHT22;2011;48.238;13.948;2024-03-25T08:04:14;6.90;99.90
3994;DHT22;2011;48.238;13.948;2024-03-25T08:06:41;6.90;99.90
3994;DHT22;2011;48.238;13.948;2024-03-25T08:09:07;7.00;99.90
3994;DHT22;2011;48.238;13.948;2024-03-25T08:11:34;7.10;99.90
3994;DHT22;2011;48.238;13.948;2024-03-25T08:14:01;7.10;99.90
3994;DHT22;2011;48.238;13.948;2024-03-25T08:16:27;7.20;99.90
3994;DHT22;2011;48.238;13.948;2024-03-25T08:18:53;7.20;99.90
3994;DHT22;2011;48.238;13.948;2024-03-25T08:21:19;7.30;99.90
3994;DHT22;2011;48.238;13.948;2024-03-25T08:23:46;7.50;99.90
3994;DHT22;2011;48.238;13.948;2024-03-25T08:26:12;7.50;99.90
3994;DHT22;2011;48.238;13.948;2024-03-25T08:28:38;7.30;99.90
3994;DHT22;2011;48.238;13.948;2024-03-25T08:31:04;7.40;99.90
3994;DHT22;2011;48.238;13.948;2024-03-25T08:33:31;7.50;99.90
3994;DHT22;2011;48.238;13.948;2024-03-25T08:35:57;7.50;99.90
3994;DHT22;2011;48.238;13.948;2024-03-25T08:38:23;7.60;99.90
3994;DHT22;2011;48.238;13.948;2024-03-25T08:40:51;7.60;99.90
3994;DHT22;2011;48.238;13.948;2024-03-25T08:43:17;7.80;99.90
3994;DHT22;2011;48.238;13.948;2024-03-25T08:45:43;7.70;99.90
3994;DHT22;2011;48.238;13.948;2024-03-25T08:48:09;7.70;99.90
3994;DHT22;2011;48.238;13.948;2024-03-25T08:50:35;7.70;99.90
3994;DHT22;2011;48.238;13.948;2024-03-25T08:53:01;7.90;99.90
3994;DHT22;2011;48.238;13.948;2024-03-25T08:55:28;8.10;99.90
3994;DHT22;2011;48.238;13.948;2024-03-25T08:57:56;8.20;99.90
3994;DHT22;2011;48.238;13.948;2024-03-25T09:00:22;8.30;99.90
3994;DHT22;2011;48.238;13.948;2024-03-25T09:02:48;8.20;99.90
3994;DHT22;2011;48.238;13.948;2024-03-25T09:05:14;8.10;99.90
3994;DHT22;2011;48.238;13.948;2024-03-25T09:07:40;8.00;99.90
3994;DHT22;2011;48.238;13.948;2024-03-25T09:10:07;8.00;99.90
3994;DHT22;2011;48.238;13.948;2024-03-25T09:12:52;7.90;99.90
3994;DHT22;2011;48.238;13.948;2024-03-25T09:15:19;7.90;99.90
3994;DHT22;2011;48.238;13.948;2024-03-25T09:17:45;8.10;99.90
3994;DHT22;2011;48.238;13.948;2024-03-25T09:20:11;8.00;99.90
3994;DHT22;2011;48.238;13.948;2024-03-25T09:22:42;8.00;99.90
3994;DHT22;2011;48.238;13.948;2024-03-25T09:25:08;8.10;99.90
3994;DHT22;2011;48.238;13.948;2024-03-25T09:27:34;8.30;99.90
3994;DHT22;2011;48.238;13.948;2024-03-25T09:30:00;8.40;99.90
3994;DHT22;2011;48.238;13.948;2024-03-25T09:32:27;8.20;99.90
3994;DHT22;2011;48.238;13.948;2024-03-25T09:34:53;8.20;99.90
3994;DHT22;2011;48.238;13.948;2024-03-25T09:37:19;8.20;99.90
3994;DHT22;2011;48.238;13.948;2024-03-25T09:39:45;8.30;99.90
3994;DHT22;2011;48.238;13.948;2024-03-25T09:42:14;8.30;99.90
3994;DHT22;2011;48.238;13.948;2024-03-25T09:44:41;8.50;99.90
3994;DHT22;2011;48.238;13.948;2024-03-25T09:47:07;8.20;99.90
3994;DHT22;2011;48.238;13.948;2024-03-25T09:49:35;8.30;99.90
3994;DHT22;2011;48.238;13.948;2024-03-25T09:52:01;8.40;99.90
3994;DHT22;2011;48.238;13.948;2024-03-25T09:54:28;8.50;99.90
3994;DHT22;2011;48.238;13.948;2024-03-25T09:56:54;8.60;99.90
3994;DHT22;2011;48.238;13.948;2024-03-25T09:59:21;8.50;99.90
3994;DHT22;2011;48.238;13.948;2024-03-25T10:01:47;8.50;99.90
3994;DHT22;2011;48.238;13.948;2024-03-25T10:04:13;8.30;99.90
3994;DHT22;2011;48.238;13.948;2024-03-25T10:06:41;8.30;99.90
3994;DHT22;2011;48.238;13.948;2024-03-25T10:09:07;8.40;99.90
3994;DHT22;2011;48.238;13.948;2024-03-25T10:11:34;8.50;99.90
3994;DHT22;2011;48.238;13.948;2024-03-25T10:14:01;8.50;99.90
3994;DHT22;2011;48.238;13.948;2024-03-25T10:16:27;8.50;99.90
3994;DHT22;2011;48.238;13.948;2024-03-25T10:18:53;8.70;99.90
3994;DHT22;2011;48.238;13.948;2024-03-25T10:21:20;8.50;99.90
3994;DHT22;2011;48.238;13.948;2024-03-25T10:23:48;8.60;99.90
3994;DHT22;2011;48.238;13.948;2024-03-25T10:26:27;8.60;99.90
3994;DHT22;2011;48.238;13.948;2024-03-25T10:29:00;8.50;99.90
3994;DHT22;2011;48.238;13.948;2024-03-25T10:31:26;8.60;99.90
3994;DHT22;2011;48.238;13.948;2024-03-25T10:33:52;9.00;99.90
3994;DHT22;2011;48.238;13.948;2024-03-25T10:36:20;9.10;99.90
3994;DHT22;2011;48.238;13.948;2024-03-25T10:38:49;8.90;98.70
3994;DHT22;2011;48.238;13.948;2024-03-25T10:41:17;8.80;98.40
3994;DHT22;2011;48.238;13.948;2024-03-25T10:43:46;8.70;98.10
3994;DHT22;2011;48.238;13.948;2024-03-25T10:46:17;8.70;98.90
3994;DHT22;2011;48.238;13.948;2024-03-25T10:48:52;8.60;98.10
3994;DHT22;2011;48.238;13.948;2024-03-25T10:51:21;8.50;98.10
3994;DHT22;2011;48.238;13.948;2024-03-25T10:53:51;8.50;99.30
3994;DHT22;2011;48.238;13.948;2024-03-25T10:56:20;8.50;98.80
3994;DHT22;2011;48.238;13.948;2024-03-25T10:58:48;8.60;98.50
3994;DHT22;2011;48.238;13.948;2024-03-25T11:01:17;8.70;99.20
3994;DHT22;2011;48.238;13.948;2024-03-25T11:03:44;9.00;98.40
3994;DHT22;2011;48.238;13.948;2024-03-25T11:06:12;9.10;98.30
3994;DHT22;2011;48.238;13.948;2024-03-25T11:08:38;9.20;98.90
3994;DHT22;2011;48.238;13.948;2024-03-25T11:11:06;9.20;97.80
3994;DHT22;2011;48.238;13.948;2024-03-25T11:13:32;9.20;97.50
3994;DHT22;2011;48.238;13.948;2024-03-25T11:15:58;9.10;97.30
3994;DHT22;2011;48.238;13.948;2024-03-25T11:18:25;9.10;97.60
3994;DHT22;2011;48.238;13.948;2024-03-25T11:21:01;8.90;97.20
3994;DHT22;2011;48.238;13.948;2024-03-25T11:23:36;8.90;96.90
3994;DHT22;2011;48.238;13.948;2024-03-25T11:26:02;8.90;96.60
3994;DHT22;2011;48.238;13.948;2024-03-25T11:28:30;9.10;97.60
3994;DHT22;2011;48.238;13.948;2024-03-25T11:30:56;9.30;97.90
3994;DHT22;2011;48.238;13.948;2024-03-25T11:33:22;9.50;97.60
3994;DHT22;2011;48.238;13.948;2024-03-25T11:35:49;9.70;97.50
3994;DHT22;2011;48.238;13.948;2024-03-25T11:38:15;9.80;96.90
3994;DHT22;2011;48.238;13.948;2024-03-25T11:40:43;9.60;95.70
3994;DHT22;2011;48.238;13.948;2024-03-25T11:43:09;9.80;95.20
3994;DHT22;2011;48.238;13.948;2024-03-25T11:45:36;10.00;95.20
3994;DHT22;2011;48.238;13.948;2024-03-25T11:48:03;10.30;95.60
3994;DHT22;2011;48.238;13.948;2024-03-25T11:50:29;10.30;94.50
3994;DHT22;2011;48.238;13.948;2024-03-25T11:52:55;10.50;94.50
3994;DHT22;2011;48.238;13.948;2024-03-25T11:55:21;10.80;94.10
3994;DHT22;2011;48.238;13.948;2024-03-25T11:57:54;10.90;93.90
3994;DHT22;2011;48.238;13.948;2024-03-25T12:00:21;10.60;91.50
3994;DHT22;2011;48.238;13.948;2024-03-25T12:02:48;10.40;92.60
3994;DHT22;2011;48.238;13.948;2024-03-25T12:05:14;10.20;92.40
3994;DHT22;2011;48.238;13.948;2024-03-25T12:07:40;10.10;92.30
3994;DHT22;2011;48.238;13.948;2024-03-25T12:10:07;10.20;93.20
3994;DHT22;2011;48.238;13.948;2024-03-25T12:12:51;10.50;92.60
3994;DHT22;2011;48.238;13.948;2024-03-25T12:15:18;10.50;92.20
3994;DHT22;2011;48.238;13.948;2024-03-25T12:17:44;10.40;91.80
3994;DHT22;2011;48.238;13.948;2024-03-25T12:20:12;10.30;90.60
3994;DHT22;2011;48.238;13.948;2024-03-25T12:22:38;10.10;89.80
3994;DHT22;2011;48.238;13.948;2024-03-25T12:25:05;10.10;90.30
3994;DHT22;2011;48.238;13.948;2024-03-25T12:27:32;10.30;90.90
3994;DHT22;2011;48.238;13.948;2024-03-25T12:29:59;10.20;90.30
3994;DHT22;2011;48.238;13.948;2024-03-25T12:32:36;10.20;90.00
3994;DHT22;2011;48.238;13.948;2024-03-25T12:35:02;10.50;88.30
3994;DHT22;2011;48.238;13.948;2024-03-25T12:37:31;10.80;88.10
3994;DHT22;2011;48.238;13.948;2024-03-25T12:39:57;11.20;88.40
3994;DHT22;2011;48.238;13.948;2024-03-25T12:42:24;11.20;88.60
3994;DHT22;2011;48.238;13.948;2024-03-25T12:44:50;11.20;88.90
3994;DHT22;2011;48.238;13.948;2024-03-25T12:47:16;11.50;90.00
3994;DHT22;2011;48.238;13.948;2024-03-25T12:49:42;11.90;90.20
3994;DHT22;2011;48.238;13.948;2024-03-25T12:52:08;12.30;87.20
3994;DHT22;2011;48.238;13.948;2024-03-25T12:54:35;12.20;85.60
3994;DHT22;2011;48.238;13.948;2024-03-25T12:57:01;12.20;84.50
3994;DHT22;2011;48.238;13.948;2024-03-25T12:59:27;12.30;85.40
3994;DHT22;2011;48.238;13.948;2024-03-25T13:01:53;12.40;83.30
3994;DHT22;2011;48.238;13.948;2024-03-25T13:04:19;12.30;85.90
3994;DHT22;2011;48.238;13.948;2024-03-25T13:06:45;12.00;83.30
3994;DHT22;2011;48.238;13.948;2024-03-25T13:09:11;11.50;81.90
3994;DHT22;2011;48.238;13.948;2024-03-25T13:11:39;11.20;82.00
3994;DHT22;2011;48.238;13.948;2024-03-25T13:14:05;11.00;82.20
3994;DHT22;2011;48.238;13.948;2024-03-25T13:16:32;10.80;82.80
3994;DHT22;2011;48.238;13.948;2024-03-25T13:18:58;10.80;83.20
3994;DHT22;2011;48.238;13.948;2024-03-25T13:21:24;10.80;83.50
3994;DHT22;2011;48.238;13.948;2024-03-25T13:23:51;10.70;81.80
3994;DHT22;2011;48.238;13.948;2024-03-25T13:26:16;10.70;82.90
3994;DHT22;2011;48.238;13.948;2024-03-25T13:28:44;10.80;84.10
3994;DHT22;2011;48.238;13.948;2024-03-25T13:31:10;10.90;81.60
3994;DHT22;2011;48.238;13.948;2024-03-25T13:33:36;11.20;81.20
3994;DHT22;2011;48.238;13.948;2024-03-25T13:36:02;11.30;81.90
3994;DHT22;2011;48.238;13.948;2024-03-25T13:38:28;11.10;80.90
3994;DHT22;2011;48.238;13.948;2024-03-25T13:40:54;11.30;80.70
3994;DHT22;2011;48.238;13.948;2024-03-25T13:43:20;11.30;80.20
3994;DHT22;2011;48.238;13.948;2024-03-25T13:45:48;11.40;79.70
3994;DHT22;2011;48.238;13.948;2024-03-25T13:48:15;11.70;81.00
3994;DHT22;2011;48.238;13.948;2024-03-25T13:50:41;11.90;79.70
3994;DHT22;2011;48.238;13.948;2024-03-25T13:53:07;12.00;78.00
3994;DHT22;2011;48.238;13.948;2024-03-25T13:55:34;12.10;77.00
3994;DHT22;2011;48.238;13.948;2024-03-25T13:58:00;12.30;77.70
3994;DHT22;2011;48.238;13.948;2024-03-25T14:00:26;12.40;76.30
3994;DHT22;2011;48.238;13.948;2024-03-25T14:02:53;12.40;75.10
3994;DHT22;2011;48.238;13.948;2024-03-25T14:05:19;12.40;75.50
3994;DHT22;2011;48.238;13.948;2024-03-25T14:07:45;12.70;76.00
3994;DHT22;2011;48.238;13.948;2024-03-25T14:10:11;12.80;76.00
3994;DHT22;2011;48.238;13.948;2024-03-25T14:12:37;12.90;73.80
3994;DHT22;2011;48.238;13.948;2024-03-25T14:15:04;13.00;74.20
3994;DHT22;2011;48.238;13.948;2024-03-25T14:17:30;13.00;73.40
3994;DHT22;2011;48.238;13.948;2024-03-25T14:19:57;13.00;72.80
3994;DHT22;2011;48.238;13.948;2024-03-25T14:22:24;12.80;75.10
3994;DHT22;2011;48.238;13.948;2024-03-25T14:24:50;12.40;73.70
3994;DHT22;2011;48.238;13.948;2024-03-25T14:27:16;12.30;75.00
3994;DHT22;2011;48.238;13.948;2024-03-25T14:29:42;12.20;76.80
3994;DHT22;2011;48.238;13.948;2024-03-25T14:32:08;12.00;73.80
3994;DHT22;2011;48.238;13.948;2024-03-25T14:34:34;11.80;73.90
3994;DHT22;2011;48.238;13.948;2024-03-25T14:37:02;11.80;74.00
3994;DHT22;2011;48.238;13.948;2024-03-25T14:39:28;11.80;75.20
3994;DHT22;2011;48.238;13.948;2024-03-25T14:41:54;11.80;75.10
3994;DHT22;2011;48.238;13.948;2024-03-25T14:44:20;11.90;75.00
3994;DHT22;2011;48.238;13.948;2024-03-25T14:46:46;12.00;74.10
3994;DHT22;2011;48.238;13.948;2024-03-25T14:49:12;12.00;75.50
3994;DHT22;2011;48.238;13.948;2024-03-25T14:51:38;12.10;74.20
3994;DHT22;2011;48.238;13.948;2024-03-25T14:54:05;12.10;74.50
3994;DHT22;2011;48.238;13.948;2024-03-25T14:56:31;12.20;73.90
3994;DHT22;2011;48.238;13.948;2024-03-25T14:58:58;12.20;74.40
3994;DHT22;2011;48.238;13.948;2024-03-25T15:01:24;12.40;75.70
3994;DHT22;2011;48.238;13.948;2024-03-25T15:03:50;12.40;76.30
3994;DHT22;2011;48.238;13.948;2024-03-25T15:06:16;12.40;76.50
3994;DHT22;2011;48.238;13.948;2024-03-25T15:08:42;12.40;75.80
3994;DHT22;2011;48.238;13.948;2024-03-25T15:11:09;12.70;75.00
3994;DHT22;2011;48.238;13.948;2024-03-25T15:13:36;12.80;74.10
3994;DHT22;2011;48.238;13.948;2024-03-25T15:16:04;13.00;74.60
3994;DHT22;2011;48.238;13.948;2024-03-25T15:18:30;13.20;72.70
3994;DHT22;2011;48.238;13.948;2024-03-25T15:21:03;13.20;71.50
3994;DHT22;2011;48.238;13.948;2024-03-25T15:23:30;13.30;70.60
3994;DHT22;2011;48.238;13.948;2024-03-25T15:25:56;13.10;70.60
3994;DHT22;2011;48.238;13.948;2024-03-25T15:28:24;13.20;70.20
3994;DHT22;2011;48.238;13.948;2024-03-25T15:30:50;13.20;70.70
3994;DHT22;2011;48.238;13.948;2024-03-25T15:33:16;13.30;70.70
3994;DHT22;2011;48.238;13.948;2024-03-25T15:35:42;13.30;70.60
3994;DHT22;2011;48.238;13.948;2024-03-25T15:38:08;13.40;70.60
3994;DHT22;2011;48.238;13.948;2024-03-25T15:40:35;13.40;68.70
3994;DHT22;2011;48.238;13.948;2024-03-25T15:43:01;13.60;69.10
3994;DHT22;2011;48.238;13.948;2024-03-25T15:45:29;13.80;69.70
3994;DHT22;2011;48.238;13.948;2024-03-25T15:47:55;14.00;70.70
3994;DHT22;2011;48.238;13.948;2024-03-25T15:50:21;14.20;70.50
3994;DHT22;2011;48.238;13.948;2024-03-25T15:52:47;14.30;68.80
3994;DHT22;2011;48.238;13.948;2024-03-25T15:55:13;14.30;67.80